Dongfang Kantan No.1 — BFEJ — position and weather

sailwx.info

Track history (hours):
 
Tides and Currents Weather Stations Pressure Air Temp Water Temp Dewpoint Dewpoint Depression Visibility Wind Speed Wind Dir Waves Ship Positions

Dongfang Kantan No.1

Last reported at 2017-Oct-30 21:46 UTC. Time now 2017-Nov-24 02:14 UTC.
Position N 25°29' W 014°48'.
Warning: this ship's position is 24 days out of date.

Length 62 m; draft 3.8 m.

Type: Ship. MMSI: 413300120.

Date/timePositionNaut miles runAvg speedWind from/ knotsBaromVisibWave heightAir tempDewpointWater temp
2017-Oct-30 21:46N 25°29' W 014°48'1 4.2
2017-Oct-30 21:27N 25°30' W 014°50'2 4.2
2017-Oct-30 20:59N 25°31' W 014°52'7 3.9
2017-Oct-30 19:20N 25°33' W 014°58'7 3.8
2017-Oct-30 17:25N 25°37' W 015°05'12 2.6
2017-Oct-30 12:43N 25°46' W 015°14'11 3.2
2017-Oct-30 09:06N 25°37' W 015°05'2 3.1
2017-Oct-30 08:33N 25°38' W 015°07'  
2017-Oct-24 06:08N 25°27' W 015°60'1 4.2
2017-Oct-24 05:58N 25°27' W 015°59'5 4.1
2017-Oct-24 04:38N 25°32' W 015°56'2 4.2
2017-Oct-24 04:16N 25°33' W 015°54'1 4.1
2017-Oct-24 03:56N 25°34' W 015°54'2 4.1
2017-Oct-24 03:26N 25°35' W 015°52'4 4.1
2017-Oct-24 02:33N 25°38' W 015°50'0 4.1
2017-Oct-24 02:26N 25°39' W 015°49'2 4.0
2017-Oct-24 01:59N 25°40' W 015°48'4 4.0
2017-Oct-24 01:06N 25°43' W 015°46'16 4.0
2017-Oct-23 21:05N 25°56' W 015°35'0 4.1
2017-Oct-23 20:58N 25°56' W 015°35'  
Track history (hours):
 
Tides and Currents Weather Stations Pressure Air Temp Water Temp Dewpoint Dewpoint Depression Visibility Wind Speed Wind Dir Waves Ship Positions

Dongfang Kantan No.1

Last reported at 2017-Oct-30 21:46 UTC. Time now 2017-Nov-24 02:14 UTC.
Position N 25°29' W 014°48'.
Warning: this ship's position is 24 days out of date.

Length 62 m; draft 3.8 m.

Type: Ship. MMSI: 413300120.

Date/timePositionNaut miles runAvg speedWind from/ knotsBaromVisibWave heightAir tempDewpointWater temp
2017-Oct-30 21:46N 25°29' W 014°48'1 4.2
2017-Oct-30 21:27N 25°30' W 014°50'2 4.2
2017-Oct-30 20:59N 25°31' W 014°52'7 3.9
2017-Oct-30 19:20N 25°33' W 014°58'7 3.8
2017-Oct-30 17:25N 25°37' W 015°05'12 2.6
2017-Oct-30 12:43N 25°46' W 015°14'11 3.2
2017-Oct-30 09:06N 25°37' W 015°05'2 3.1
2017-Oct-30 08:33N 25°38' W 015°07'  
2017-Oct-24 06:08N 25°27' W 015°60'1 4.2
2017-Oct-24 05:58N 25°27' W 015°59'5 4.1
2017-Oct-24 04:38N 25°32' W 015°56'2 4.2
2017-Oct-24 04:16N 25°33' W 015°54'1 4.1
2017-Oct-24 03:56N 25°34' W 015°54'2 4.1
2017-Oct-24 03:26N 25°35' W 015°52'4 4.1
2017-Oct-24 02:33N 25°38' W 015°50'0 4.1
2017-Oct-24 02:26N 25°39' W 015°49'2 4.0
2017-Oct-24 01:59N 25°40' W 015°48'4 4.0
2017-Oct-24 01:06N 25°43' W 015°46'16 4.0
2017-Oct-23 21:05N 25°56' W 015°35'0 4.1
2017-Oct-23 20:58N 25°56' W 015°35'  

Dump ship's entire track history